Pagrindinis puslapis
METAR-TAF:

METAR-TAF

Oro uostai :

Samas, Graikija

platuma: 37-42N, ilguma: 026-55E, Aukštis: 2 m

Dabartinis oras

Ataskaita buvo paskelbta 3 valandos ir 55 minutes, ne 17:50 UTC
Ramus vėjas
Temperatūra 13°C
Drėgmė 77%
Slėgis 1021 hPa
Matomumas 10 km arba daugiau
nėra debesų žemiau 1500 m ir nėra kamuolinių lietaus debesų

METAR: LGSM 151750Z 00000KT CAVOK 13/09 Q1021

Laikas: 23:45 (21:45 UTC)

Prognozė

Ataskaita buvo paskelbta 1 valandą ir 45 minutes, ne 20:00 UTC
Prognozė galioja nuo 15 metu 21 UTC su 16 metu 06 UTC
Vėjas 5 kt iš Šiaurės
Matomumas 10 km arba daugiau
Mažai debesys ne aukštis 2000 ft
Tikimybė 30%
nuo 16 metu 00 UTC su 16 metu 06 UTC
Matomumas: 5000 m
Išsisklaidę debesys ne aukštis 800 ft
rūkana

TAF: LGSM 152000Z 1521/1606 35005KT 9999 FEW020 PROB30 1600/1606 5000 BR SCT008

Orai ataskaitas ir orų prognozės (METAR, TAF).

turimą stotys yra geltonos ir raudonos taškus žemėlapyje.

Perkelti pele per norėdami pamatyti stoties vardą.

Tada spustelėkite, norėdami matyti oro stebėjimo ir prognozės.

Norėdami pakeisti žemėlapį: spustelėkite ant žalios mygtukų su juodo kryžiaus žemyn,; žalią mygtuką su brūkšneliu, jei norite nutolinti; arba žalių rodyklių gretimoms žemėlapius.


METAR-TAF: